sensor_id;sensor_type;location;lat;lon;timestamp;pressure;altitude;pressure_sealevel;temperature;humidity
50364;BME280;36272;59.400;17.982;2022-07-29T00:00:33;102020.78;;;16.07;65.91
50364;BME280;36272;59.400;17.982;2022-07-29T00:05:34;102016.50;;;15.99;65.56
50364;BME280;36272;59.400;17.982;2022-07-29T00:10:36;102015.53;;;15.74;66.29
50364;BME280;36272;59.400;17.982;2022-07-29T00:15:37;102002.88;;;15.56;67.00
50364;BME280;36272;59.400;17.982;2022-07-29T00:20:39;102017.03;;;15.52;67.17
50364;BME280;36272;59.400;17.982;2022-07-29T00:25:41;102018.44;;;15.54;67.14
50364;BME280;36272;59.400;17.982;2022-07-29T00:30:42;102015.16;;;15.52;66.89
50364;BME280;36272;59.400;17.982;2022-07-29T00:35:44;102007.75;;;15.48;66.91
50364;BME280;36272;59.400;17.982;2022-07-29T00:40:46;101998.97;;;15.34;67.68
50364;BME280;36272;59.400;17.982;2022-07-29T00:45:48;102007.06;;;15.34;67.45
50364;BME280;36272;59.400;17.982;2022-07-29T00:50:50;102003.16;;;15.29;67.43
50364;BME280;36272;59.400;17.982;2022-07-29T00:55:53;101980.69;;;15.17;67.86
50364;BME280;36272;59.400;17.982;2022-07-29T01:00:57;101982.78;;;15.15;67.99
50364;BME280;36272;59.400;17.982;2022-07-29T01:05:59;101988.59;;;15.12;67.98
50364;BME280;36272;59.400;17.982;2022-07-29T01:11:02;101999.00;;;15.08;68.07
50364;BME280;36272;59.400;17.982;2022-07-29T01:16:11;101981.63;;;15.04;68.25
50364;BME280;36272;59.400;17.982;2022-07-29T01:21:37;101988.13;;;14.96;68.46
50364;BME280;36272;59.400;17.982;2022-07-29T01:26:48;101986.94;;;14.92;68.66
50364;BME280;36272;59.400;17.982;2022-07-29T01:32:08;101986.75;;;14.87;68.73
50364;BME280;36272;59.400;17.982;2022-07-29T01:42:49;101983.53;;;14.78;68.63
50364;BME280;36272;59.400;17.982;2022-07-29T01:48:06;101977.97;;;14.73;68.76
50364;BME280;36272;59.400;17.982;2022-07-29T01:53:14;101987.94;;;14.66;68.89
50364;BME280;36272;59.400;17.982;2022-07-29T01:58:18;101991.13;;;14.56;69.10
50364;BME280;36272;59.400;17.982;2022-07-29T02:03:22;101997.13;;;14.51;69.14
50364;BME280;36272;59.400;17.982;2022-07-29T02:08:31;101992.78;;;14.50;69.14
50364;BME280;36272;59.400;17.982;2022-07-29T02:13:35;101995.09;;;14.47;69.18
50364;BME280;36272;59.400;17.982;2022-07-29T02:18:40;101993.44;;;14.46;69.36
50364;BME280;36272;59.400;17.982;2022-07-29T02:23:44;101992.00;;;14.43;69.56
50364;BME280;36272;59.400;17.982;2022-07-29T02:28:52;101992.44;;;14.40;69.82
50364;BME280;36272;59.400;17.982;2022-07-29T02:33:55;101994.53;;;14.38;69.93
50364;BME280;36272;59.400;17.982;2022-07-29T02:38:58;102001.84;;;14.31;70.06
50364;BME280;36272;59.400;17.982;2022-07-29T02:44:06;101994.19;;;14.27;69.92
50364;BME280;36272;59.400;17.982;2022-07-29T02:49:37;102000.00;;;14.24;70.35
50364;BME280;36272;59.400;17.982;2022-07-29T02:54:46;101996.09;;;14.20;70.33
50364;BME280;36272;59.400;17.982;2022-07-29T02:59:52;102007.03;;;14.19;69.94
50364;BME280;36272;59.400;17.982;2022-07-29T03:04:57;102007.47;;;14.16;70.23
50364;BME280;36272;59.400;17.982;2022-07-29T03:10:01;102010.41;;;14.14;70.66
50364;BME280;36272;59.400;17.982;2022-07-29T03:15:04;102020.72;;;14.17;70.79
50364;BME280;36272;59.400;17.982;2022-07-29T03:20:07;102014.94;;;14.13;70.54
50364;BME280;36272;59.400;17.982;2022-07-29T03:25:13;102015.16;;;14.12;70.84
50364;BME280;36272;59.400;17.982;2022-07-29T03:30:16;102030.03;;;14.15;70.69
50364;BME280;36272;59.400;17.982;2022-07-29T03:35:18;102029.84;;;14.16;70.63
50364;BME280;36272;59.400;17.982;2022-07-29T03:40:44;102028.19;;;14.15;70.78
50364;BME280;36272;59.400;17.982;2022-07-29T03:45:49;102025.91;;;14.12;70.91
50364;BME280;36272;59.400;17.982;2022-07-29T03:50:53;102039.16;;;14.13;71.35
50364;BME280;36272;59.400;17.982;2022-07-29T03:55:57;102027.34;;;14.15;71.90
50364;BME280;36272;59.400;17.982;2022-07-29T04:01:00;102030.03;;;14.21;70.21
50364;BME280;36272;59.400;17.982;2022-07-29T04:06:05;102026.72;;;14.19;71.89
50364;BME280;36272;59.400;17.982;2022-07-29T04:11:07;102043.47;;;14.21;72.74
50364;BME280;36272;59.400;17.982;2022-07-29T04:16:09;102050.09;;;14.25;73.35
50364;BME280;36272;59.400;17.982;2022-07-29T04:21:10;102049.22;;;14.32;74.08
50364;BME280;36272;59.400;17.982;2022-07-29T04:26:12;102047.09;;;14.40;74.41
50364;BME280;36272;59.400;17.982;2022-07-29T04:31:14;102035.06;;;14.50;74.87
50364;BME280;36272;59.400;17.982;2022-07-29T04:36:16;102056.91;;;14.60;75.13
50364;BME280;36272;59.400;17.982;2022-07-29T04:41:17;102046.13;;;14.67;75.35
50364;BME280;36272;59.400;17.982;2022-07-29T04:46:19;102046.88;;;14.81;75.54
50364;BME280;36272;59.400;17.982;2022-07-29T04:51:21;102061.50;;;14.92;75.56
50364;BME280;36272;59.400;17.982;2022-07-29T04:56:22;102050.22;;;15.01;76.00
50364;BME280;36272;59.400;17.982;2022-07-29T05:01:24;102046.19;;;15.18;75.60
50364;BME280;36272;59.400;17.982;2022-07-29T05:06:26;102047.69;;;15.32;75.51
50364;BME280;36272;59.400;17.982;2022-07-29T05:11:27;102048.19;;;15.48;74.92
50364;BME280;36272;59.400;17.982;2022-07-29T05:16:29;102051.13;;;15.65;74.46
50364;BME280;36272;59.400;17.982;2022-07-29T05:21:31;102048.03;;;15.80;74.08
50364;BME280;36272;59.400;17.982;2022-07-29T05:26:32;102064.94;;;15.94;73.95
50364;BME280;36272;59.400;17.982;2022-07-29T05:31:34;102062.69;;;16.09;74.23
50364;BME280;36272;59.400;17.982;2022-07-29T05:36:36;102065.56;;;16.26;74.68
50364;BME280;36272;59.400;17.982;2022-07-29T05:41:37;102069.16;;;16.39;74.73
50364;BME280;36272;59.400;17.982;2022-07-29T05:46:39;102076.03;;;16.53;74.24
50364;BME280;36272;59.400;17.982;2022-07-29T05:51:41;102072.31;;;16.66;72.92
50364;BME280;36272;59.400;17.982;2022-07-29T05:56:42;102070.25;;;16.80;72.52
50364;BME280;36272;59.400;17.982;2022-07-29T06:01:44;102077.31;;;16.93;71.38
50364;BME280;36272;59.400;17.982;2022-07-29T06:06:45;102079.47;;;17.03;70.56
50364;BME280;36272;59.400;17.982;2022-07-29T06:11:47;102080.31;;;17.15;69.37
50364;BME280;36272;59.400;17.982;2022-07-29T06:16:49;102080.56;;;17.26;69.00
50364;BME280;36272;59.400;17.982;2022-07-29T06:21:50;102082.69;;;17.35;68.37
50364;BME280;36272;59.400;17.982;2022-07-29T06:26:52;102092.69;;;17.47;66.84
50364;BME280;36272;59.400;17.982;2022-07-29T06:31:54;102097.50;;;17.57;65.76
50364;BME280;36272;59.400;17.982;2022-07-29T06:36:55;102096.06;;;17.66;64.72
50364;BME280;36272;59.400;17.982;2022-07-29T06:41:57;102096.31;;;17.76;63.88
50364;BME280;36272;59.400;17.982;2022-07-29T06:46:59;102101.13;;;17.86;62.78
50364;BME280;36272;59.400;17.982;2022-07-29T06:52:01;102101.81;;;17.93;62.33
50364;BME280;36272;59.400;17.982;2022-07-29T06:57:03;102113.69;;;18.04;61.98
50364;BME280;36272;59.400;17.982;2022-07-29T07:02:05;102109.56;;;18.13;60.24
50364;BME280;36272;59.400;17.982;2022-07-29T07:07:06;102111.91;;;18.22;59.35
50364;BME280;36272;59.400;17.982;2022-07-29T07:12:08;102110.38;;;18.26;58.75
50364;BME280;36272;59.400;17.982;2022-07-29T07:17:09;102106.78;;;18.37;57.62
50364;BME280;36272;59.400;17.982;2022-07-29T07:22:11;102116.16;;;18.47;57.17
50364;BME280;36272;59.400;17.982;2022-07-29T07:27:13;102092.47;;;18.54;56.54
50364;BME280;36272;59.400;17.982;2022-07-29T07:32:14;102095.84;;;18.61;56.63
50364;BME280;36272;59.400;17.982;2022-07-29T07:37:17;102093.34;;;18.71;56.02
50364;BME280;36272;59.400;17.982;2022-07-29T07:42:21;102089.97;;;18.81;55.76
50364;BME280;36272;59.400;17.982;2022-07-29T07:47:23;102087.94;;;18.88;56.24
50364;BME280;36272;59.400;17.982;2022-07-29T07:52:25;102081.31;;;18.96;56.11
50364;BME280;36272;59.400;17.982;2022-07-29T07:57:28;102066.50;;;19.04;55.34
50364;BME280;36272;59.400;17.982;2022-07-29T08:02:29;102083.44;;;19.11;55.27
50364;BME280;36272;59.400;17.982;2022-07-29T08:07:32;102080.06;;;19.21;55.01
50364;BME280;36272;59.400;17.982;2022-07-29T08:12:33;102094.03;;;19.30;54.78
50364;BME280;36272;59.400;17.982;2022-07-29T08:17:35;102088.50;;;19.42;54.91
50364;BME280;36272;59.400;17.982;2022-07-29T08:22:37;102093.03;;;19.53;53.96
50364;BME280;36272;59.400;17.982;2022-07-29T08:27:38;102091.53;;;19.63;54.23
50364;BME280;36272;59.400;17.982;2022-07-29T08:32:40;102086.88;;;19.80;53.79
50364;BME280;36272;59.400;17.982;2022-07-29T08:37:42;102089.31;;;19.99;53.57
50364;BME280;36272;59.400;17.982;2022-07-29T08:42:43;102083.53;;;20.17;53.48
50364;BME280;36272;59.400;17.982;2022-07-29T08:47:45;102091.66;;;20.40;52.63
50364;BME280;36272;59.400;17.982;2022-07-29T08:52:49;102065.44;;;20.50;52.11
50364;BME280;36272;59.400;17.982;2022-07-29T08:57:51;102076.19;;;20.68;52.44
50364;BME280;36272;59.400;17.982;2022-07-29T09:02:56;102080.19;;;20.87;51.95
50364;BME280;36272;59.400;17.982;2022-07-29T09:07:59;102079.00;;;21.10;51.70
50364;BME280;36272;59.400;17.982;2022-07-29T09:13:01;102091.72;;;21.37;51.53
50364;BME280;36272;59.400;17.982;2022-07-29T09:18:03;102084.19;;;21.55;50.85
50364;BME280;36272;59.400;17.982;2022-07-29T09:23:08;102070.72;;;21.71;50.73
50364;BME280;36272;59.400;17.982;2022-07-29T09:28:13;102061.00;;;21.95;50.96
50364;BME280;36272;59.400;17.982;2022-07-29T09:33:15;102078.53;;;22.20;50.76
50364;BME280;36272;59.400;17.982;2022-07-29T09:38:17;102068.72;;;22.24;49.56
50364;BME280;36272;59.400;17.982;2022-07-29T09:43:19;102080.97;;;22.22;49.27
50364;BME280;36272;59.400;17.982;2022-07-29T09:48:22;102060.25;;;22.26;48.65
50364;BME280;36272;59.400;17.982;2022-07-29T09:58:32;102069.28;;;22.42;48.49
50364;BME280;36272;59.400;17.982;2022-07-29T10:03:55;102054.34;;;22.50;48.61
50364;BME280;36272;59.400;17.982;2022-07-29T10:09:12;102055.16;;;22.55;48.21
50364;BME280;36272;59.400;17.982;2022-07-29T10:14:14;102062.25;;;22.56;47.61
50364;BME280;36272;59.400;17.982;2022-07-29T10:19:16;102062.25;;;22.56;47.28
50364;BME280;36272;59.400;17.982;2022-07-29T10:24:18;102057.38;;;22.69;47.88
50364;BME280;36272;59.400;17.982;2022-07-29T10:29:21;102066.91;;;22.92;47.55
50364;BME280;36272;59.400;17.982;2022-07-29T10:45:36;102055.16;;;23.23;46.93
50364;BME280;36272;59.400;17.982;2022-07-29T10:50:57;102046.94;;;23.43;46.55
50364;BME280;36272;59.400;17.982;2022-07-29T10:56:04;102054.47;;;23.72;45.87
50364;BME280;36272;59.400;17.982;2022-07-29T11:01:29;102026.25;;;23.87;45.56
50364;BME280;36272;59.400;17.982;2022-07-29T11:11:52;102036.50;;;24.56;45.52
50364;BME280;36272;59.400;17.982;2022-07-29T11:17:04;102024.84;;;24.80;44.57
50364;BME280;36272;59.400;17.982;2022-07-29T11:22:08;102025.81;;;24.94;44.53
50364;BME280;36272;59.400;17.982;2022-07-29T11:27:17;102025.31;;;25.41;43.49
50364;BME280;36272;59.400;17.982;2022-07-29T11:32:20;102013.66;;;25.98;42.32
50364;BME280;36272;59.400;17.982;2022-07-29T11:37:23;102026.38;;;25.89;42.27
50364;BME280;36272;59.400;17.982;2022-07-29T11:47:28;102021.50;;;27.88;40.39
50364;BME280;36272;59.400;17.982;2022-07-29T11:52:34;102007.31;;;29.08;38.51
50364;BME280;36272;59.400;17.982;2022-07-29T11:57:46;102014.34;;;30.08;37.07
50364;BME280;36272;59.400;17.982;2022-07-29T12:02:49;102029.41;;;31.02;36.45
50364;BME280;36272;59.400;17.982;2022-07-29T12:07:50;102016.50;;;31.54;35.70
50364;BME280;36272;59.400;17.982;2022-07-29T12:12:52;102024.47;;;31.77;35.14
50364;BME280;36272;59.400;17.982;2022-07-29T12:17:56;102023.53;;;31.04;35.87
50364;BME280;36272;59.400;17.982;2022-07-29T12:23:05;102013.16;;;30.26;36.53
50364;BME280;36272;59.400;17.982;2022-07-29T12:28:12;102010.13;;;30.02;36.89
50364;BME280;36272;59.400;17.982;2022-07-29T12:33:25;102012.88;;;30.10;36.43
50364;BME280;36272;59.400;17.982;2022-07-29T12:38:28;102015.28;;;29.94;36.37
50364;BME280;36272;59.400;17.982;2022-07-29T12:43:30;102010.06;;;29.84;36.33
50364;BME280;36272;59.400;17.982;2022-07-29T12:48:42;102000.84;;;30.06;36.17
50364;BME280;36272;59.400;17.982;2022-07-29T12:54:11;101991.66;;;30.02;36.31
50364;BME280;36272;59.400;17.982;2022-07-29T12:59:22;101991.22;;;30.56;35.58
50364;BME280;36272;59.400;17.982;2022-07-29T13:04:26;101984.47;;;31.23;35.34
50364;BME280;36272;59.400;17.982;2022-07-29T13:14:45;101978.47;;;31.93;33.78
50364;BME280;36272;59.400;17.982;2022-07-29T13:30:00;101975.06;;;31.45;34.43
50364;BME280;36272;59.400;17.982;2022-07-29T13:35:04;101974.91;;;30.81;34.90
50364;BME280;36272;59.400;17.982;2022-07-29T13:40:08;101970.53;;;30.15;35.24
50364;BME280;36272;59.400;17.982;2022-07-29T13:45:10;101976.50;;;29.64;35.91
50364;BME280;36272;59.400;17.982;2022-07-29T13:50:12;101969.19;;;29.60;35.99
50364;BME280;36272;59.400;17.982;2022-07-29T13:55:13;101964.03;;;29.93;35.87
50364;BME280;36272;59.400;17.982;2022-07-29T14:00:15;101953.59;;;30.91;35.34
50364;BME280;36272;59.400;17.982;2022-07-29T14:05:17;101949.03;;;32.10;34.38
50364;BME280;36272;59.400;17.982;2022-07-29T14:10:19;101936.13;;;32.47;34.38
50364;BME280;36272;59.400;17.982;2022-07-29T14:15:20;101942.44;;;33.47;33.38
50364;BME280;36272;59.400;17.982;2022-07-29T14:20:22;101941.34;;;34.53;32.56
50364;BME280;36272;59.400;17.982;2022-07-29T14:25:24;101931.16;;;35.65;31.30
50364;BME280;36272;59.400;17.982;2022-07-29T14:30:25;101939.47;;;36.27;30.34
50364;BME280;36272;59.400;17.982;2022-07-29T14:35:27;101935.59;;;36.32;29.55
50364;BME280;36272;59.400;17.982;2022-07-29T14:40:29;101925.81;;;36.19;29.32
50364;BME280;36272;59.400;17.982;2022-07-29T14:45:30;101928.34;;;36.04;29.62
50364;BME280;36272;59.400;17.982;2022-07-29T14:50:33;101920.00;;;36.04;29.58
50364;BME280;36272;59.400;17.982;2022-07-29T14:55:34;101927.06;;;35.58;29.71
50364;BME280;36272;59.400;17.982;2022-07-29T15:00:36;101930.22;;;35.02;29.67
50364;BME280;36272;59.400;17.982;2022-07-29T15:05:38;101930.69;;;34.39;29.89
50364;BME280;36272;59.400;17.982;2022-07-29T15:10:40;101919.03;;;33.73;29.95
50364;BME280;36272;59.400;17.982;2022-07-29T15:15:42;101917.53;;;33.22;30.47
50364;BME280;36272;59.400;17.982;2022-07-29T15:20:43;101925.97;;;33.14;30.78
50364;BME280;36272;59.400;17.982;2022-07-29T15:25:48;101921.63;;;32.88;31.08
50364;BME280;36272;59.400;17.982;2022-07-29T15:30:50;101910.84;;;32.49;31.09
50364;BME280;36272;59.400;17.982;2022-07-29T15:35:51;101901.00;;;32.14;31.45
50364;BME280;36272;59.400;17.982;2022-07-29T15:40:53;101905.94;;;32.21;31.44
50364;BME280;36272;59.400;17.982;2022-07-29T15:45:55;101904.81;;;31.88;31.46
50364;BME280;36272;59.400;17.982;2022-07-29T15:51:15;101900.41;;;31.54;31.89
50364;BME280;36272;59.400;17.982;2022-07-29T15:56:16;101899.09;;;31.09;32.18
50364;BME280;36272;59.400;17.982;2022-07-29T16:01:18;101899.78;;;30.76;32.59
50364;BME280;36272;59.400;17.982;2022-07-29T16:06:19;101890.75;;;30.58;32.92
50364;BME280;36272;59.400;17.982;2022-07-29T16:11:21;101883.19;;;30.37;33.28
50364;BME280;36272;59.400;17.982;2022-07-29T16:16:23;101882.59;;;30.14;33.44
50364;BME280;36272;59.400;17.982;2022-07-29T16:21:25;101883.47;;;29.79;33.55
50364;BME280;36272;59.400;17.982;2022-07-29T16:26:27;101873.72;;;29.37;34.19
50364;BME280;36272;59.400;17.982;2022-07-29T16:31:28;101876.91;;;28.96;34.73
50364;BME280;36272;59.400;17.982;2022-07-29T16:36:30;101869.81;;;28.63;34.93
50364;BME280;36272;59.400;17.982;2022-07-29T16:41:31;101870.06;;;28.44;34.98
50364;BME280;36272;59.400;17.982;2022-07-29T16:46:33;101878.31;;;28.12;36.65
50364;BME280;36272;59.400;17.982;2022-07-29T16:51:37;101873.06;;;27.56;38.51
50364;BME280;36272;59.400;17.982;2022-07-29T16:56:39;101870.13;;;26.88;40.00
50364;BME280;36272;59.400;17.982;2022-07-29T17:01:40;101876.56;;;26.50;40.93
50364;BME280;36272;59.400;17.982;2022-07-29T17:06:42;101879.34;;;26.17;41.43
50364;BME280;36272;59.400;17.982;2022-07-29T17:11:44;101876.75;;;26.07;41.85
50364;BME280;36272;59.400;17.982;2022-07-29T17:16:45;101875.59;;;25.94;41.87
50364;BME280;36272;59.400;17.982;2022-07-29T17:21:47;101879.78;;;25.72;41.96
50364;BME280;36272;59.400;17.982;2022-07-29T17:26:48;101886.59;;;25.56;42.44
50364;BME280;36272;59.400;17.982;2022-07-29T17:31:50;101876.44;;;25.37;42.68
50364;BME280;36272;59.400;17.982;2022-07-29T17:36:52;101885.75;;;25.17;42.83
50364;BME280;36272;59.400;17.982;2022-07-29T17:41:53;101885.16;;;24.95;43.23
50364;BME280;36272;59.400;17.982;2022-07-29T17:46:55;101879.00;;;24.85;43.26
50364;BME280;36272;59.400;17.982;2022-07-29T17:51:57;101890.09;;;24.69;43.57
50364;BME280;36272;59.400;17.982;2022-07-29T17:56:59;101893.22;;;24.57;43.79
50364;BME280;36272;59.400;17.982;2022-07-29T18:02:00;101887.03;;;24.46;44.01
50364;BME280;36272;59.400;17.982;2022-07-29T18:07:02;101877.06;;;24.31;44.18
50364;BME280;36272;59.400;17.982;2022-07-29T18:12:04;101878.31;;;24.15;44.45
50364;BME280;36272;59.400;17.982;2022-07-29T18:17:05;101883.63;;;23.96;44.89
50364;BME280;36272;59.400;17.982;2022-07-29T18:22:07;101882.91;;;23.85;44.93
50364;BME280;36272;59.400;17.982;2022-07-29T18:27:10;101886.28;;;23.66;45.37
50364;BME280;36272;59.400;17.982;2022-07-29T18:32:12;101889.88;;;23.61;45.67
50364;BME280;36272;59.400;17.982;2022-07-29T18:37:17;101885.31;;;23.52;45.65
50364;BME280;36272;59.400;17.982;2022-07-29T18:42:19;101908.56;;;23.39;45.64
50364;BME280;36272;59.400;17.982;2022-07-29T18:47:20;101900.69;;;23.27;46.06
50364;BME280;36272;59.400;17.982;2022-07-29T18:52:22;101903.16;;;23.18;46.29
50364;BME280;36272;59.400;17.982;2022-07-29T18:57:24;101906.22;;;23.06;46.48
50364;BME280;36272;59.400;17.982;2022-07-29T19:02:25;101907.09;;;22.91;46.62
50364;BME280;36272;59.400;17.982;2022-07-29T19:07:28;101907.91;;;22.81;46.98
50364;BME280;36272;59.400;17.982;2022-07-29T19:12:30;101897.88;;;22.71;47.11
50364;BME280;36272;59.400;17.982;2022-07-29T19:17:32;101904.41;;;22.55;47.53
50364;BME280;36272;59.400;17.982;2022-07-29T19:22:33;101901.97;;;22.43;47.86
50364;BME280;36272;59.400;17.982;2022-07-29T19:27:35;101906.34;;;22.28;48.13
50364;BME280;36272;59.400;17.982;2022-07-29T19:32:36;101910.16;;;22.22;48.34
50364;BME280;36272;59.400;17.982;2022-07-29T19:37:39;101915.06;;;22.15;48.46
50364;BME280;36272;59.400;17.982;2022-07-29T19:42:41;101902.53;;;22.09;48.72
50364;BME280;36272;59.400;17.982;2022-07-29T19:47:43;101901.72;;;22.03;48.65
50364;BME280;36272;59.400;17.982;2022-07-29T19:52:45;101907.94;;;21.88;48.93
50364;BME280;36272;59.400;17.982;2022-07-29T19:57:47;101906.31;;;21.77;49.37
50364;BME280;36272;59.400;17.982;2022-07-29T20:02:49;101913.91;;;21.69;49.71
50364;BME280;36272;59.400;17.982;2022-07-29T20:07:51;101908.16;;;21.61;50.08
50364;BME280;36272;59.400;17.982;2022-07-29T20:12:53;101914.91;;;21.53;50.68
50364;BME280;36272;59.400;17.982;2022-07-29T20:17:55;101922.53;;;21.51;50.80
50364;BME280;36272;59.400;17.982;2022-07-29T20:22:56;101915.94;;;21.42;51.51
50364;BME280;36272;59.400;17.982;2022-07-29T20:27:59;101916.78;;;21.42;51.58
50364;BME280;36272;59.400;17.982;2022-07-29T20:33:01;101908.31;;;21.33;52.13
50364;BME280;36272;59.400;17.982;2022-07-29T20:38:02;101911.56;;;21.30;52.47
50364;BME280;36272;59.400;17.982;2022-07-29T20:43:04;101910.47;;;21.26;52.79
50364;BME280;36272;59.400;17.982;2022-07-29T20:48:06;101906.38;;;21.18;52.96
50364;BME280;36272;59.400;17.982;2022-07-29T20:53:07;101914.22;;;21.15;53.13
50364;BME280;36272;59.400;17.982;2022-07-29T20:58:09;101906.84;;;21.05;53.26
50364;BME280;36272;59.400;17.982;2022-07-29T21:03:11;101904.34;;;20.93;53.58
50364;BME280;36272;59.400;17.982;2022-07-29T21:08:12;101915.22;;;20.93;53.52
50364;BME280;36272;59.400;17.982;2022-07-29T21:13:15;101907.63;;;20.95;53.49
50364;BME280;36272;59.400;17.982;2022-07-29T21:18:17;101905.16;;;20.93;53.48
50364;BME280;36272;59.400;17.982;2022-07-29T21:23:30;101908.13;;;20.92;53.42
50364;BME280;36272;59.400;17.982;2022-07-29T21:28:32;101904.88;;;20.90;53.72
50364;BME280;36272;59.400;17.982;2022-07-29T21:33:40;101886.88;;;20.84;53.66
50364;BME280;36272;59.400;17.982;2022-07-29T21:38:42;101907.78;;;20.83;53.63
50364;BME280;36272;59.400;17.982;2022-07-29T21:43:43;101901.81;;;20.81;53.73
50364;BME280;36272;59.400;17.982;2022-07-29T21:48:51;101885.22;;;20.77;53.84
50364;BME280;36272;59.400;17.982;2022-07-29T21:53:53;101905.28;;;20.76;53.98
50364;BME280;36272;59.400;17.982;2022-07-29T21:58:54;101894.69;;;20.75;53.93
50364;BME280;36272;59.400;17.982;2022-07-29T22:03:56;101907.41;;;20.69;53.96
50364;BME280;36272;59.400;17.982;2022-07-29T22:08:58;101903.03;;;20.63;54.22
50364;BME280;36272;59.400;17.982;2022-07-29T22:13:59;101899.72;;;20.56;54.27
50364;BME280;36272;59.400;17.982;2022-07-29T22:19:01;101896.66;;;20.47;54.72
50364;BME280;36272;59.400;17.982;2022-07-29T22:24:04;101890.63;;;20.40;54.75
50364;BME280;36272;59.400;17.982;2022-07-29T22:29:06;101896.91;;;20.40;54.71
50364;BME280;36272;59.400;17.982;2022-07-29T22:34:07;101893.34;;;20.40;55.17
50364;BME280;36272;59.400;17.982;2022-07-29T22:39:13;101891.97;;;20.37;55.19
50364;BME280;36272;59.400;17.982;2022-07-29T22:44:14;101891.97;;;20.37;55.21
50364;BME280;36272;59.400;17.982;2022-07-29T22:49:16;101889.50;;;20.35;55.20
50364;BME280;36272;59.400;17.982;2022-07-29T22:54:17;101899.00;;;20.33;55.20
50364;BME280;36272;59.400;17.982;2022-07-29T22:59:19;101894.09;;;20.30;56.12
50364;BME280;36272;59.400;17.982;2022-07-29T23:04:20;101893.25;;;20.24;56.27
50364;BME280;36272;59.400;17.982;2022-07-29T23:09:24;101893.50;;;20.23;56.44
50364;BME280;36272;59.400;17.982;2022-07-29T23:14:25;101891.28;;;20.19;56.40
50364;BME280;36272;59.400;17.982;2022-07-29T23:19:27;101887.97;;;20.12;56.96
50364;BME280;36272;59.400;17.982;2022-07-29T23:24:29;101889.31;;;20.10;57.26
50364;BME280;36272;59.400;17.982;2022-07-29T23:29:30;101889.59;;;20.08;57.53
50364;BME280;36272;59.400;17.982;2022-07-29T23:34:33;101895.22;;;20.01;58.25
50364;BME280;36272;59.400;17.982;2022-07-29T23:39:35;101892.94;;;19.93;58.17
50364;BME280;36272;59.400;17.982;2022-07-29T23:44:36;101893.13;;;19.86;58.25
50364;BME280;36272;59.400;17.982;2022-07-29T23:49:38;101886.53;;;19.77;58.30
50364;BME280;36272;59.400;17.982;2022-07-29T23:54:40;101889.59;;;19.58;58.60
50364;BME280;36272;59.400;17.982;2022-07-29T23:59:41;101886.66;;;19.38;58.84
